createdAt,value
2018-12-18T00:00:59.910Z,21.90
2018-12-18T00:03:44.745Z,22.70
2018-12-18T00:06:23.514Z,23.87
2018-12-18T00:09:04.708Z,24.83
2018-12-18T00:11:45.634Z,27.70
2018-12-18T00:14:30.912Z,25.30
2018-12-18T00:17:12.747Z,26.03
2018-12-18T00:19:57.406Z,24.40
2018-12-18T00:25:36.466Z,24.80
2018-12-18T00:28:14.507Z,26.13
2018-12-18T00:33:53.910Z,23.73
2018-12-18T00:36:40.130Z,25.80
2018-12-18T00:39:25.142Z,25.53
2018-12-18T00:42:08.393Z,25.60
2018-12-18T00:44:53.256Z,27.57
2018-12-18T00:47:44.297Z,26.40
2018-12-18T00:50:30.094Z,25.53
2018-12-18T00:53:08.849Z,24.90
2018-12-18T00:55:49.795Z,25.00
2018-12-18T00:58:29.276Z,25.50
2018-12-18T01:01:07.199Z,25.73
2018-12-18T01:03:53.262Z,25.70
2018-12-18T01:06:32.868Z,25.10
2018-12-18T01:09:10.018Z,24.40
2018-12-18T01:11:50.222Z,27.33
2018-12-18T01:14:35.514Z,26.17
2018-12-18T01:17:13.263Z,26.47
2018-12-18T01:20:02.582Z,28.47
2018-12-18T01:22:47.569Z,23.73
2018-12-18T01:25:36.570Z,26.37
2018-12-18T01:28:22.230Z,26.00
2018-12-18T01:31:10.921Z,25.60
2018-12-18T01:33:51.103Z,26.80
2018-12-18T01:36:29.609Z,28.40
2018-12-18T01:39:09.718Z,26.60
2018-12-18T01:41:57.547Z,26.50
2018-12-18T01:44:38.541Z,29.90
2018-12-18T01:47:23.846Z,27.70
2018-12-18T01:53:09.255Z,27.27
2018-12-18T01:55:54.227Z,25.60
2018-12-18T01:58:41.236Z,26.80
2018-12-18T02:01:18.270Z,27.83
2018-12-18T02:04:05.754Z,26.10
2018-12-18T02:06:48.423Z,26.20
2018-12-18T02:09:34.087Z,25.77
2018-12-18T02:12:17.640Z,25.40
2018-12-18T02:15:04.779Z,27.57
2018-12-18T02:17:43.093Z,26.00
2018-12-18T02:20:28.136Z,25.70
2018-12-18T02:22:57.609Z,26.80
2018-12-18T02:28:52.601Z,26.30
2018-12-18T02:31:40.306Z,26.70
2018-12-18T02:34:28.055Z,27.27
2018-12-18T02:37:15.125Z,26.10
2018-12-18T02:43:00.399Z,26.47
2018-12-18T02:45:46.015Z,25.50
2018-12-18T02:51:33.572Z,26.13
2018-12-18T02:54:19.371Z,25.87
2018-12-18T02:57:04.300Z,24.33
2018-12-18T02:59:43.827Z,25.00
2018-12-18T03:05:29.061Z,24.63
2018-12-18T03:11:03.834Z,24.97
2018-12-18T03:13:50.883Z,23.83
2018-12-18T03:16:36.001Z,24.77
2018-12-18T03:19:27.022Z,25.23
2018-12-18T03:22:11.879Z,24.87
2018-12-18T03:24:54.405Z,24.33
2018-12-18T03:27:40.761Z,26.40
2018-12-18T03:30:25.786Z,24.87
2018-12-18T03:33:13.068Z,25.40
2018-12-18T03:35:53.790Z,24.00
2018-12-18T03:38:39.264Z,27.20
2018-12-18T03:41:19.674Z,25.40
2018-12-18T03:44:01.720Z,26.17
2018-12-18T03:46:39.020Z,25.83
2018-12-18T03:49:25.013Z,25.07
2018-12-18T03:52:12.196Z,24.90
2018-12-18T03:54:57.047Z,26.10
2018-12-18T03:57:42.683Z,25.53
2018-12-18T04:00:21.555Z,26.83
2018-12-18T04:03:06.673Z,24.63
2018-12-18T04:05:54.789Z,23.60
2018-12-18T04:14:48.350Z,25.10
2018-12-18T04:17:34.139Z,25.57
2018-12-18T04:20:21.366Z,24.87
2018-12-18T04:23:02.749Z,25.20
2018-12-18T04:25:52.826Z,27.53
2018-12-18T04:28:38.414Z,24.67
2018-12-18T04:31:15.822Z,23.10
2018-12-18T04:34:02.411Z,26.00
2018-12-18T04:36:47.990Z,27.20
2018-12-18T04:39:33.047Z,28.33
2018-12-18T04:42:17.984Z,27.03
2018-12-18T04:47:58.304Z,28.00
2018-12-18T04:50:43.862Z,25.87
2018-12-18T04:56:29.318Z,25.37
2018-12-18T04:59:16.495Z,25.90
2018-12-18T05:04:57.345Z,25.27
2018-12-18T05:07:42.653Z,25.03
2018-12-18T05:10:24.268Z,24.80
2018-12-18T05:13:05.979Z,24.87
2018-12-18T05:15:58.331Z,24.53
2018-12-18T05:21:43.432Z,22.67
2018-12-18T05:24:20.861Z,23.50
2018-12-18T05:30:15.981Z,23.03
2018-12-18T05:33:01.068Z,23.97
2018-12-18T05:35:48.820Z,24.17
2018-12-18T05:38:36.580Z,22.00
2018-12-18T05:41:14.044Z,21.67
2018-12-18T05:44:07.133Z,21.97
2018-12-18T05:46:46.892Z,21.67
2018-12-18T05:49:26.461Z,22.43
2018-12-18T05:55:22.883Z,23.13
2018-12-18T05:58:04.481Z,22.20
2018-12-18T06:00:42.915Z,23.03
2018-12-18T06:03:28.244Z,22.90
2018-12-18T06:06:15.604Z,23.30
2018-12-18T06:09:03.323Z,22.90
2018-12-18T06:11:42.738Z,24.87
2018-12-18T06:14:31.424Z,23.13
2018-12-18T06:17:08.919Z,24.03
2018-12-18T06:22:50.543Z,21.87
2018-12-18T06:25:36.512Z,22.67
2018-12-18T06:28:26.464Z,21.20
2018-12-18T06:31:15.237Z,23.90
2018-12-18T06:34:03.907Z,22.73
2018-12-18T06:36:48.613Z,21.07
2018-12-18T06:39:34.317Z,21.60
2018-12-18T06:42:22.742Z,22.70
2018-12-18T06:45:10.418Z,23.20
2018-12-18T06:47:50.303Z,23.00
2018-12-18T06:50:34.257Z,22.33
2018-12-18T06:53:12.203Z,23.00
2018-12-18T06:59:10.129Z,21.70
2018-12-18T07:02:00.463Z,22.10
2018-12-18T07:04:44.933Z,21.07
2018-12-18T07:07:29.145Z,21.63
2018-12-18T07:10:14.255Z,21.97
2018-12-18T07:12:59.879Z,22.53
2018-12-18T07:15:39.139Z,21.37
2018-12-18T07:18:22.356Z,22.77
2018-12-18T07:21:18.196Z,21.70
2018-12-18T07:27:00.965Z,22.20
2018-12-18T07:29:40.489Z,22.50
2018-12-18T07:32:30.399Z,20.23
2018-12-18T07:35:23.318Z,22.73
2018-12-18T07:38:13.583Z,21.33
2018-12-18T07:41:01.147Z,21.50
2018-12-18T07:43:48.159Z,22.50
2018-12-18T07:49:23.089Z,21.30
2018-12-18T07:52:14.486Z,22.20
2018-12-18T07:55:04.484Z,21.20
2018-12-18T07:57:51.864Z,21.23
2018-12-18T08:00:30.114Z,19.27
2018-12-18T08:03:13.028Z,19.00
2018-12-18T08:05:52.123Z,18.60
2018-12-18T08:08:30.716Z,17.27
2018-12-18T08:11:11.329Z,17.87
2018-12-18T08:13:55.910Z,18.37
2018-12-18T08:22:39.048Z,16.13
2018-12-18T08:25:20.337Z,16.77
2018-12-18T08:31:03.181Z,16.30
2018-12-18T08:36:45.039Z,16.67
2018-12-18T08:39:23.833Z,15.30
2018-12-18T08:45:18.017Z,16.87
2018-12-18T08:48:10.051Z,15.70
2018-12-18T08:50:50.127Z,15.63
2018-12-18T08:53:38.281Z,15.83
2018-12-18T08:56:24.843Z,16.13
2018-12-18T08:59:02.430Z,15.47
2018-12-18T09:01:44.507Z,16.10
2018-12-18T09:04:22.184Z,16.07
2018-12-18T09:07:09.031Z,15.80
2018-12-18T09:09:57.465Z,16.33
2018-12-18T09:12:43.097Z,19.70
2018-12-18T09:15:33.475Z,14.97
2018-12-18T09:18:19.254Z,16.00
2018-12-18T09:20:56.258Z,16.10
2018-12-18T09:23:36.805Z,16.50
2018-12-18T09:26:26.785Z,15.77
2018-12-18T09:32:14.737Z,16.70
2018-12-18T09:37:45.214Z,16.63
2018-12-18T09:40:28.621Z,16.00
2018-12-18T09:44:20.990Z,18.10
2018-12-18T09:46:58.756Z,16.27
2018-12-18T09:49:52.641Z,16.70
2018-12-18T09:52:38.530Z,16.60
2018-12-18T09:55:16.141Z,17.60
2018-12-18T10:01:07.368Z,17.97
2018-12-18T10:06:54.956Z,18.47
2018-12-18T10:09:34.496Z,18.37
2018-12-18T10:12:17.097Z,17.80
2018-12-18T10:15:04.886Z,17.60
2018-12-18T10:27:21.449Z,19.60
2018-12-18T10:30:09.153Z,19.93
2018-12-18T10:35:51.919Z,18.60
2018-12-18T10:38:37.611Z,22.17
2018-12-18T10:41:14.582Z,19.90
2018-12-18T10:44:01.896Z,19.00
2018-12-18T10:46:47.250Z,19.93
2018-12-18T10:49:32.662Z,18.73
2018-12-18T10:52:10.307Z,19.67
2018-12-18T10:54:57.723Z,20.53
2018-12-18T10:57:43.338Z,21.67
2018-12-18T11:00:34.622Z,19.30
2018-12-18T11:03:13.904Z,20.07
2018-12-18T11:05:59.837Z,20.67
2018-12-18T11:08:40.211Z,21.57
2018-12-18T11:14:26.174Z,21.07
2018-12-18T11:17:04.677Z,23.07
2018-12-18T11:19:52.177Z,22.90
2018-12-18T11:22:41.078Z,24.03
2018-12-18T11:25:22.361Z,20.93
2018-12-18T11:28:04.831Z,21.40
2018-12-18T11:30:52.850Z,21.93
2018-12-18T11:36:53.586Z,23.53
2018-12-18T11:39:31.745Z,22.13
2018-12-18T11:42:17.698Z,23.50
2018-12-18T11:44:55.300Z,21.10
2018-12-18T11:47:42.686Z,23.00
2018-12-18T11:50:20.328Z,22.47
2018-12-18T11:53:08.420Z,21.60
2018-12-18T11:55:51.422Z,22.37
2018-12-18T11:58:40.679Z,23.63
2018-12-18T12:01:20.754Z,22.37
2018-12-18T12:04:06.986Z,21.17
2018-12-18T12:06:44.855Z,21.83
2018-12-18T12:09:23.726Z,20.37
2018-12-18T12:15:21.562Z,21.30
2018-12-18T12:18:04.130Z,21.27
2018-12-18T12:20:46.554Z,20.87
2018-12-18T12:23:34.603Z,19.13
2018-12-18T12:26:17.641Z,20.13
2018-12-18T12:28:54.762Z,20.00
2018-12-18T12:34:50.557Z,21.20
2018-12-18T12:37:28.988Z,18.20
2018-12-18T12:40:14.180Z,20.00
2018-12-18T12:42:50.643Z,19.03
2018-12-18T12:45:39.966Z,18.43
2018-12-18T12:48:19.256Z,17.37
2018-12-18T12:50:56.867Z,18.80
2018-12-18T12:53:35.571Z,16.87
2018-12-18T12:59:31.406Z,17.93
2018-12-18T13:02:13.544Z,16.13
2018-12-18T13:04:58.163Z,16.40
2018-12-18T13:07:43.967Z,14.77
2018-12-18T13:10:21.096Z,15.90
2018-12-18T13:16:21.940Z,15.03
2018-12-18T13:19:02.799Z,15.70
2018-12-18T13:21:49.700Z,15.10
2018-12-18T13:24:37.640Z,15.63
2018-12-18T13:27:28.387Z,14.10
2018-12-18T13:30:10.313Z,13.90
2018-12-18T13:32:51.631Z,12.30
2018-12-18T13:35:37.669Z,11.73
2018-12-18T13:38:17.161Z,12.67
2018-12-18T13:40:54.442Z,11.50
2018-12-18T13:43:41.136Z,10.23
2018-12-18T13:46:24.210Z,10.40
2018-12-18T13:52:09.725Z,11.67
2018-12-18T13:54:57.361Z,11.50
2018-12-18T13:57:49.679Z,9.93
2018-12-18T14:00:37.524Z,11.53
2018-12-18T14:03:16.746Z,10.80
2018-12-18T14:06:02.147Z,10.97
2018-12-18T14:11:42.818Z,12.30
2018-12-18T14:14:26.576Z,11.17
2018-12-18T14:17:12.268Z,10.70
2018-12-18T14:19:50.949Z,10.60
2018-12-18T14:25:47.033Z,10.10
2018-12-18T14:28:32.576Z,9.40
2018-12-18T14:31:12.311Z,9.37
2018-12-18T14:37:02.996Z,10.00
2018-12-18T14:39:47.012Z,10.20
2018-12-18T14:42:28.714Z,11.83
2018-12-18T14:45:04.970Z,11.10
2018-12-18T14:47:45.484Z,12.20
2018-12-18T14:50:35.235Z,11.93
2018-12-18T14:53:18.689Z,11.80
2018-12-18T14:55:58.482Z,12.53
2018-12-18T14:58:45.011Z,11.20
2018-12-18T15:01:24.908Z,10.83
2018-12-18T15:04:04.598Z,10.23
2018-12-18T15:06:45.821Z,9.70
2018-12-18T15:09:32.000Z,8.97
2018-12-18T15:12:08.732Z,8.43
2018-12-18T15:14:46.134Z,8.93
2018-12-18T15:17:31.404Z,8.07
2018-12-18T15:20:14.479Z,8.20
2018-12-18T15:25:30.577Z,6.70
2018-12-18T15:28:19.153Z,6.70
2018-12-18T15:33:57.701Z,7.03
2018-12-18T15:36:44.868Z,6.93
2018-12-18T15:39:32.421Z,6.77
2018-12-18T15:42:22.564Z,7.40
2018-12-18T15:45:15.209Z,7.53
2018-12-18T15:48:07.116Z,7.23
2018-12-18T15:50:44.886Z,8.63
2018-12-18T15:53:28.511Z,9.53
2018-12-18T15:56:07.765Z,8.20
2018-12-18T15:58:45.333Z,8.70
2018-12-18T16:01:24.692Z,7.93
2018-12-18T16:04:09.149Z,8.10
2018-12-18T16:06:55.936Z,8.20
2018-12-18T16:09:41.315Z,7.30
2018-12-18T16:12:28.850Z,7.90
2018-12-18T16:15:16.617Z,7.23
2018-12-18T16:17:58.150Z,8.07
2018-12-18T16:23:48.520Z,8.13
2018-12-18T16:26:26.170Z,8.17
2018-12-18T16:32:16.418Z,7.00
2018-12-18T16:34:59.186Z,7.47
2018-12-18T16:37:45.097Z,7.23
2018-12-18T16:40:33.964Z,6.90
2018-12-18T16:43:11.111Z,7.30
2018-12-18T16:45:56.485Z,7.70
2018-12-18T16:48:43.355Z,7.50
2018-12-18T16:51:30.589Z,7.10
2018-12-18T16:54:16.129Z,7.53
2018-12-18T16:56:58.715Z,7.97
2018-12-18T16:59:47.560Z,7.17
2018-12-18T17:02:28.350Z,6.80
2018-12-18T17:05:18.046Z,8.40
2018-12-18T17:14:20.925Z,7.90
2018-12-18T17:17:06.318Z,6.97
2018-12-18T17:19:53.838Z,7.70
2018-12-18T17:22:31.651Z,7.57
2018-12-18T17:25:20.827Z,7.47
2018-12-18T17:28:10.612Z,7.23
2018-12-18T17:30:51.219Z,8.77
2018-12-18T17:33:29.533Z,8.37
2018-12-18T17:36:09.296Z,8.47
2018-12-18T17:38:51.631Z,8.43
2018-12-18T17:41:38.199Z,6.90
2018-12-18T17:44:25.466Z,7.73
2018-12-18T17:47:03.013Z,7.30
2018-12-18T17:49:49.625Z,6.90
2018-12-18T17:52:39.076Z,6.20
2018-12-18T17:55:25.709Z,7.17
2018-12-18T17:58:10.818Z,8.20
2018-12-18T18:01:03.123Z,7.67
2018-12-18T18:03:44.662Z,7.30
2018-12-18T18:06:30.604Z,7.53
2018-12-18T18:09:18.583Z,7.60
2018-12-18T18:11:59.256Z,8.37
2018-12-18T18:14:44.758Z,8.40
2018-12-18T18:17:30.950Z,8.80
2018-12-18T18:20:23.200Z,8.23
2018-12-18T18:23:00.498Z,6.40
2018-12-18T18:25:42.300Z,7.77
2018-12-18T18:28:28.789Z,7.00
2018-12-18T18:31:09.868Z,7.37
2018-12-18T18:33:48.833Z,7.13
2018-12-18T18:36:28.455Z,8.07
2018-12-18T18:39:07.180Z,7.37
2018-12-18T18:47:52.204Z,7.50
2018-12-18T18:53:37.949Z,8.00
2018-12-18T18:56:23.746Z,8.60
2018-12-18T18:59:01.326Z,8.83
2018-12-18T19:01:38.698Z,9.10
2018-12-18T19:04:15.944Z,9.40
2018-12-18T19:06:53.122Z,9.60
2018-12-18T19:09:38.949Z,8.83
2018-12-18T19:12:25.220Z,9.43
2018-12-18T19:15:13.108Z,9.63
2018-12-18T19:20:50.031Z,9.37
2018-12-18T19:23:41.227Z,8.60
2018-12-18T19:26:29.104Z,8.90
2018-12-18T19:29:10.928Z,9.00
2018-12-18T19:31:56.721Z,9.13
2018-12-18T19:34:40.301Z,8.83
2018-12-18T19:37:27.811Z,9.77
2018-12-18T19:43:10.244Z,9.00
2018-12-18T19:45:48.124Z,8.83
2018-12-18T19:48:30.469Z,8.30
2018-12-18T19:51:16.756Z,9.00
2018-12-18T19:57:10.966Z,8.47
2018-12-18T19:59:59.072Z,8.20
2018-12-18T20:02:48.208Z,8.40
2018-12-18T20:05:30.177Z,8.40
2018-12-18T20:11:24.891Z,8.17
2018-12-18T20:49:58.262Z,10.57
2018-12-18T21:05:23.793Z,12.77
2018-12-18T21:11:20.524Z,12.77
2018-12-18T21:17:07.408Z,12.23
2018-12-18T21:19:55.525Z,12.33
2018-12-18T21:38:30.255Z,11.67
2018-12-18T21:44:17.712Z,11.20
2018-12-18T22:15:08.942Z,10.20
